Barbados Meteorological Services
Auto gathered TAF list
Powered by Apparatus software
For Flight AA2725
Contact Number 1-(246)-535-0021/2/3/4/5/6
WEB: http://www.barbadosweather.org

**********************************************

2019/05/25 18:06
TAF TLPL 251700Z 2518/2618 11017KT 9999 SCT025 PROB30
TEMPO 2518/2606 SHRA


**********************************************
2019/05/25 20:59
TAF
AMD TJSJ 251946Z 2520/2618 06015KT P6SM VCSH SCT030 SCT100
FM252300 09008KT P6SM SCT030 SCT080
FM260800 11004KT P6SM VCSH SCT025 BKN050
FM261400 06014KT P6SM SCT030 SCT060


**********************************************
2019/05/25 18:56
TAF TFFR 251700Z 2518/2618 11010KT 9999 SCT030 BKN040 PROB40
TEMPO 2518/2612 3000 SHRA SCT015TCU
BECMG 2520/2522 VRB02KT
BECMG 2610/2612 11010KT


**********************************************
2019/05/25 18:12
TAF TBPB 251700Z 2518/2618 11014KT 9999 SCT020= TAF TVSA 251700Z 2518/2618 09008KT 9999 SCT018


**********************************************
2019/05/25 18:54
TAF TAF TAPA 251700Z 2518/2618 10010KT 9999 SCT018 PROB40
TEMPO 2518/2612 SHRA BKN015


**********************************************
2019/05/25 18:49
TAF MYNN 251515Z 2518/2618 08012KT 9999 SCT030


**********************************************
2019/05/24 18:20
TAF MTPP 241707Z 2418/2518 08012KT 9000 SCT026CB
BECMG 2419/2423 27012KT PROB40
TEMPO 2502/2506 09010KT 4500 SHRA SCT022CB BKN060
BECMG 2508/2512 VRB02KT 9000 FEW020
BECMG 2514/2518 09012KT


**********************************************
2019/05/25 18:30
TAF MDSD 251600Z 2518/2618 18008KT 9999 FEW018CB SCT020 SCT080 PROB30 2520/2602 6000 -TSRA FEW014CB BKN016 BKN070
BECMG 2521/2523 05004KT


**********************************************
2019/05/25 18:36
TAF KSFB 251735Z 2518/2618 08010KT P6SM FEW040
FM260200 14003KT P6SM SKC
FM261500 11008KT P6SM FEW040


**********************************************
2019/05/25 18:36
TAF KPHL 251732Z 2518/2624 18009KT P6SM FEW030 BKN070
TEMPO 2601/2605 3SM SHRA OVC030
FM260600 21007KT P6SM SCT010 BKN100
FM261400 28007KT P6SM SCT150


**********************************************
2019/05/25 18:28
TAF KPBI 251720Z 2518/2618 07015KT P6SM SCT030
FM260100 08010KT P6SM FEW030
FM261500 09015KT P6SM SCT030


**********************************************
2019/05/25 18:22
TAF KOPF 251720Z 2518/2618 08015KT P6SM SCT035
FM260100 09010KT P6SM FEW030
FM261500 01015KT P6SM SCT035


**********************************************
2019/05/25 18:22
TAF KMIA 251720Z 2518/2624 08015KT P6SM SCT040
FM260100 09010KT P6SM FEW030
FM261500 10015KT P6SM SCT040


**********************************************
2019/05/25 18:36
TAF KMCO 251735Z 2518/2624 06010KT P6SM SCT040
FM260200 09003KT P6SM SKC
FM261500 11008KT P6SM FEW040


**********************************************
2019/05/25 20:54
TAF
AMD KJFK 251953Z 2520/2624 16015G20KT P6SM SCT050 BKN120
FM260000 17011KT P6SM BKN050 OVC100
FM260300 19010KT P6SM VCSH SCT025 OVC040
TEMPO 2603/2606 4SM SHRA BKN025
FM260800 21009KT P6SM SCT007 BKN015 OVC040
FM261200 29007KT P6SM BKN025 BKN040
FM261400 24009KT P6SM SCT025 SCT050
FM261600 25013G18KT P6SM SCT050 SCT100
FM262100 28015G20KT P6SM SCT050 BKN080


**********************************************
2019/05/25 18:22
TAF KJAX 251720Z 2518/2618 06008KT P6SM FEW060
FM252000 11010KT P6SM FEW060
FM260100 19004KT P6SM SKC


**********************************************
2019/05/25 18:28
TAF KFLL 251720Z 2518/2624 08015KT P6SM FEW025 SCT040
FM260100 09012KT P6SM FEW025
FM261500 10015KT P6SM SCT035


**********************************************
2019/05/25 20:54
TAF
AMD KEWR 251953Z 2520/2624 15010G15KT P6SM BKN050 BKN120
FM260000 15009KT P6SM BKN050 OVC100
FM260300 20007KT P6SM VCSH SCT025 OVC040
TEMPO 2604/2608 4SM SHRA BKN025
FM260800 22006KT P6SM BKN020 OVC040
FM261200 29007KT P6SM BKN015 BKN040
FM261400 25009KT P6SM SCT020 SCT050
FM261600 30010G17KT P6SM SCT050 SCT100
FM262100 30013G19KT P6SM SCT050 BKN080


**********************************************
2019/05/25 20:58
TAF
AMD KCLT 251958Z 2520/2624 21006KT P6SM SCT060
FM260300 VRB03KT P6SM SCT250
FM261300 31004KT P6SM FEW250
FM261700 26008KT P6SM FEW250


**********************************************
2019/05/25 20:36
TAF
AMD KATL 251933Z 2520/2624 28006KT P6SM SCT060
FM260100 28004KT P6SM SKC
FM261600 27005KT P6SM FEW050


**********************************************